createdAt,value
2022-09-07T00:01:11.486Z,6.28
2022-09-07T00:03:39.143Z,5.95
2022-09-07T00:06:10.054Z,5.53
2022-09-07T00:08:40.082Z,5.75
2022-09-07T00:11:13.000Z,6.20
2022-09-07T00:13:41.948Z,6.43
2022-09-07T00:16:13.448Z,5.93
2022-09-07T00:18:45.848Z,6.15
2022-09-07T00:21:17.386Z,5.75
2022-09-07T00:23:47.850Z,5.85
2022-09-07T00:26:21.379Z,4.93
2022-09-07T00:28:50.146Z,6.85
2022-09-07T00:31:22.108Z,6.15
2022-09-07T00:33:51.524Z,7.20
2022-09-07T00:36:20.386Z,5.75
2022-09-07T00:38:48.795Z,5.57
2022-09-07T00:41:17.798Z,5.60
2022-09-07T00:43:58.757Z,6.30
2022-09-07T00:46:28.828Z,5.93
2022-09-07T00:49:02.645Z,6.45
2022-09-07T00:51:41.163Z,6.07
2022-09-07T00:54:23.522Z,5.82
2022-09-07T00:56:55.024Z,5.45
2022-09-07T00:59:27.478Z,5.70
2022-09-07T01:01:55.985Z,5.93
2022-09-07T01:04:24.260Z,5.65
2022-09-07T01:06:55.156Z,5.40
2022-09-07T01:09:24.786Z,6.05
2022-09-07T01:11:54.987Z,5.28
2022-09-07T01:14:27.744Z,5.97
2022-09-07T01:16:58.019Z,5.57
2022-09-07T01:19:57.131Z,5.68
2022-09-07T01:22:43.269Z,5.32
2022-09-07T01:25:18.381Z,5.60
2022-09-07T01:27:51.869Z,5.85
2022-09-07T01:30:21.412Z,5.70
2022-09-07T01:33:19.611Z,5.28
2022-09-07T01:35:59.190Z,5.40
2022-09-07T01:38:42.968Z,5.50
2022-09-07T01:41:22.837Z,5.60
2022-09-07T01:44:02.996Z,4.90
2022-09-07T01:46:40.015Z,5.22
2022-09-07T01:49:29.615Z,4.95
2022-09-07T01:52:06.235Z,5.32
2022-09-07T01:54:42.451Z,5.38
2022-09-07T01:57:18.261Z,5.03
2022-09-07T02:00:02.918Z,5.50
2022-09-07T02:02:53.070Z,5.32
2022-09-07T02:05:23.130Z,4.85
2022-09-07T02:08:11.420Z,5.22
2022-09-07T02:10:51.677Z,5.57
2022-09-07T02:13:22.290Z,6.10
2022-09-07T02:15:59.049Z,5.90
2022-09-07T02:18:31.899Z,6.18
2022-09-07T02:21:02.084Z,5.35
2022-09-07T02:23:36.333Z,6.28
2022-09-07T02:26:10.522Z,5.88
2022-09-07T02:28:39.841Z,6.13
2022-09-07T02:31:08.301Z,5.70
2022-09-07T02:33:37.201Z,5.30
2022-09-07T02:36:05.530Z,5.68
2022-09-07T02:38:35.008Z,5.40
2022-09-07T02:41:04.964Z,5.30
2022-09-07T02:43:33.733Z,5.10
2022-09-07T02:46:37.784Z,5.18
2022-09-07T02:49:42.682Z,4.80
2022-09-07T02:52:40.410Z,4.57
2022-09-07T02:55:27.752Z,5.15
2022-09-07T02:58:41.711Z,4.88
2022-09-07T03:01:15.104Z,4.50
2022-09-07T03:03:46.600Z,4.45
2022-09-07T03:06:25.162Z,4.38
2022-09-07T03:08:58.759Z,4.75
2022-09-07T03:11:26.694Z,4.65
2022-09-07T03:14:11.842Z,5.90
2022-09-07T03:16:39.670Z,5.57
2022-09-07T03:19:07.737Z,6.45
2022-09-07T03:21:35.921Z,5.60
2022-09-07T03:24:04.159Z,5.80
2022-09-07T03:26:32.236Z,5.03
2022-09-07T03:29:00.038Z,5.80
2022-09-07T03:31:27.529Z,5.22
2022-09-07T03:33:55.920Z,5.38
2022-09-07T03:36:23.430Z,5.55
2022-09-07T03:38:51.102Z,5.20
2022-09-07T03:41:19.052Z,5.95
2022-09-07T03:43:46.952Z,6.05
2022-09-07T03:46:19.581Z,5.95
2022-09-07T03:48:49.792Z,6.30
2022-09-07T03:51:20.700Z,6.35
2022-09-07T03:53:51.631Z,6.53
2022-09-07T03:56:21.805Z,6.72
2022-09-07T03:58:51.473Z,6.47
2022-09-07T04:01:22.745Z,6.68
2022-09-07T04:03:51.320Z,6.82
2022-09-07T04:06:20.200Z,5.97
2022-09-07T04:08:49.157Z,6.00
2022-09-07T04:11:19.259Z,5.90
2022-09-07T04:13:47.992Z,5.03
2022-09-07T04:16:21.361Z,5.00
2022-09-07T04:18:52.002Z,4.90
2022-09-07T04:21:21.461Z,4.40
2022-09-07T04:23:49.682Z,4.40
2022-09-07T04:26:20.955Z,4.53
2022-09-07T04:28:49.657Z,4.75
2022-09-07T04:31:19.385Z,4.15
2022-09-07T04:33:48.936Z,4.78
2022-09-07T04:36:17.611Z,4.93
2022-09-07T04:38:45.785Z,4.45
2022-09-07T04:41:18.660Z,5.20
2022-09-07T04:43:47.325Z,4.85
2022-09-07T04:46:23.635Z,5.20
2022-09-07T04:48:53.427Z,5.25
2022-09-07T04:51:22.452Z,4.93
2022-09-07T04:53:51.914Z,4.57
2022-09-07T04:56:20.734Z,5.30
2022-09-07T04:58:49.520Z,4.80
2022-09-07T05:01:19.813Z,4.68
2022-09-07T05:03:47.863Z,4.93
2022-09-07T05:06:17.455Z,4.80
2022-09-07T05:08:47.619Z,5.32
2022-09-07T05:11:16.105Z,4.88
2022-09-07T05:13:44.074Z,5.25
2022-09-07T05:16:13.036Z,5.07
2022-09-07T05:18:41.486Z,5.65
2022-09-07T05:21:12.378Z,5.70
2022-09-07T05:23:42.779Z,5.47
2022-09-07T05:26:13.344Z,5.60
2022-09-07T05:28:40.983Z,6.47
2022-09-07T05:36:37.887Z,11.30
2022-09-07T05:39:07.549Z,11.57
2022-09-07T05:41:35.530Z,10.90
2022-09-07T05:46:52.474Z,10.40
2022-09-07T05:49:20.004Z,10.43
2022-09-07T05:51:48.345Z,12.02
2022-09-07T05:54:15.985Z,9.57
2022-09-07T05:56:43.709Z,10.38
2022-09-07T05:59:11.399Z,12.15
2022-09-07T06:01:38.953Z,12.48
2022-09-07T06:04:06.495Z,12.50
2022-09-07T06:06:38.438Z,11.43
2022-09-07T06:09:06.847Z,11.88
2022-09-07T06:11:34.286Z,11.25
2022-09-07T06:14:01.665Z,11.75
2022-09-07T06:16:29.141Z,10.43
2022-09-07T06:18:56.669Z,10.18
2022-09-07T06:21:24.667Z,9.75
2022-09-07T06:23:51.998Z,10.20
2022-09-07T06:26:19.809Z,9.60
2022-09-07T06:28:50.266Z,10.00
2022-09-07T06:31:20.490Z,9.43
2022-09-07T06:33:48.956Z,8.50
2022-09-07T06:36:17.267Z,8.27
2022-09-07T06:38:45.733Z,9.20
2022-09-07T06:44:18.380Z,9.10
2022-09-07T06:49:33.106Z,8.80
2022-09-07T06:52:00.487Z,7.85
2022-09-07T06:57:15.489Z,7.63
2022-09-07T06:59:42.785Z,16.88
2022-09-07T07:02:13.303Z,16.65
2022-09-07T07:04:41.494Z,16.30
2022-09-07T07:07:13.915Z,17.45
2022-09-07T07:09:42.123Z,17.60
2022-09-07T07:12:10.805Z,16.55
2022-09-07T07:14:44.099Z,16.25
2022-09-07T07:19:41.123Z,16.17
2022-09-07T07:22:23.978Z,16.65
2022-09-07T07:24:55.964Z,15.77
2022-09-07T07:27:23.391Z,16.40
2022-09-07T07:29:52.426Z,14.68
2022-09-07T07:32:19.887Z,16.63
2022-09-07T07:34:47.175Z,15.82
2022-09-07T07:37:16.183Z,13.48
2022-09-07T07:42:32.533Z,13.10
2022-09-07T07:47:51.421Z,13.75
2022-09-07T07:50:34.755Z,13.13
2022-09-07T07:55:53.816Z,9.35
2022-09-07T08:00:54.692Z,9.63
2022-09-07T08:03:24.597Z,9.45
2022-09-07T08:05:52.640Z,9.40
2022-09-07T08:08:26.088Z,8.88
2022-09-07T08:10:53.503Z,8.32
2022-09-07T08:13:21.460Z,8.35
2022-09-07T08:15:49.268Z,7.40
2022-09-07T08:18:17.344Z,7.05
2022-09-07T08:20:44.998Z,7.20
2022-09-07T08:23:12.316Z,6.00
2022-09-07T08:25:49.249Z,6.25
2022-09-07T08:28:16.638Z,6.82
2022-09-07T08:30:44.000Z,6.15
2022-09-07T08:33:11.555Z,6.30
2022-09-07T08:35:38.901Z,5.45
2022-09-07T08:38:06.288Z,6.20
2022-09-07T08:40:37.156Z,6.00
2022-09-07T08:43:28.530Z,6.53
2022-09-07T08:46:03.679Z,5.38
2022-09-07T08:48:34.336Z,4.95
2022-09-07T08:51:24.339Z,4.18
2022-09-07T08:53:52.217Z,3.90
2022-09-07T08:56:32.930Z,4.15
2022-09-07T08:59:08.135Z,4.35
2022-09-07T09:01:41.237Z,3.70
2022-09-07T09:04:24.106Z,4.32
2022-09-07T09:07:09.899Z,3.92
2022-09-07T09:10:05.492Z,4.47
2022-09-07T09:13:03.849Z,4.00
2022-09-07T09:15:54.380Z,4.50
2022-09-07T09:18:59.797Z,4.03
2022-09-07T09:21:27.619Z,4.22
2022-09-07T09:24:02.046Z,3.90
2022-09-07T09:26:34.086Z,3.20
2022-09-07T09:29:21.828Z,3.80
2022-09-07T09:31:49.587Z,3.13
2022-09-07T09:34:21.185Z,2.60
2022-09-07T09:36:53.333Z,2.85
2022-09-07T09:39:35.421Z,3.28
2022-09-07T09:42:11.805Z,3.95
2022-09-07T09:44:39.796Z,2.80
2022-09-07T09:47:35.050Z,2.47
2022-09-07T09:50:07.975Z,2.78
2022-09-07T09:52:45.432Z,2.85
2022-09-07T09:55:34.977Z,3.00
2022-09-07T10:01:35.976Z,3.22
2022-09-07T10:04:25.551Z,2.80
2022-09-07T10:06:55.398Z,2.88
2022-09-07T10:09:26.978Z,2.85
2022-09-07T10:12:07.576Z,3.33
2022-09-07T10:14:46.357Z,3.20
2022-09-07T10:17:37.421Z,3.08
2022-09-07T10:20:16.980Z,3.25
2022-09-07T10:22:49.651Z,3.25
2022-09-07T10:25:44.304Z,2.75
2022-09-07T10:28:12.650Z,2.65
2022-09-07T10:30:52.028Z,3.10
2022-09-07T10:37:00.467Z,3.10
2022-09-07T10:39:41.569Z,3.38
2022-09-07T10:42:09.226Z,2.78
2022-09-07T10:44:57.537Z,3.00
2022-09-07T10:48:03.091Z,2.75
2022-09-07T10:50:36.342Z,3.00
2022-09-07T10:53:42.756Z,3.13
2022-09-07T10:56:21.662Z,2.90
2022-09-07T11:02:35.337Z,3.00
2022-09-07T11:05:05.709Z,3.00
2022-09-07T11:08:01.019Z,3.22
2022-09-07T11:10:43.605Z,3.00
2022-09-07T11:13:16.615Z,2.78
2022-09-07T11:15:50.639Z,2.95
2022-09-07T11:18:22.709Z,3.15
2022-09-07T11:20:55.541Z,2.97
2022-09-07T11:23:49.456Z,3.20
2022-09-07T11:26:23.437Z,3.10
2022-09-07T11:29:34.934Z,2.83
2022-09-07T11:32:09.805Z,2.95
2022-09-07T11:35:19.413Z,3.30
2022-09-07T11:37:59.239Z,3.25
2022-09-07T11:41:08.697Z,3.55
2022-09-07T11:43:43.474Z,3.40
2022-09-07T11:46:26.332Z,3.60
2022-09-07T11:48:56.607Z,4.20
2022-09-07T11:51:36.144Z,3.90
2022-09-07T11:54:45.363Z,3.95
2022-09-07T11:57:29.185Z,3.80
2022-09-07T12:00:19.762Z,4.15
2022-09-07T12:03:15.721Z,4.60
2022-09-07T12:05:56.808Z,3.70
2022-09-07T12:09:00.073Z,3.70
2022-09-07T12:12:05.637Z,3.88
2022-09-07T12:14:44.797Z,3.80
2022-09-07T12:17:27.129Z,3.90
2022-09-07T12:20:18.344Z,3.80
2022-09-07T12:23:05.495Z,3.60
2022-09-07T12:25:34.821Z,3.88
2022-09-07T12:28:02.865Z,4.07
2022-09-07T12:30:31.899Z,3.83
2022-09-07T12:33:18.501Z,3.70
2022-09-07T12:35:46.025Z,4.10
2022-09-07T12:38:13.530Z,3.58
2022-09-07T12:40:47.342Z,3.17
2022-09-07T12:43:14.747Z,3.72
2022-09-07T12:45:42.285Z,3.47
2022-09-07T12:48:15.676Z,3.95
2022-09-07T12:51:16.080Z,4.03
2022-09-07T12:54:01.426Z,3.72
2022-09-07T12:56:34.481Z,3.55
2022-09-07T12:59:19.858Z,3.20
2022-09-07T13:02:11.254Z,3.92
2022-09-07T13:04:46.280Z,3.25
2022-09-07T13:07:44.064Z,4.10
2022-09-07T13:10:27.241Z,3.35
2022-09-07T13:13:02.114Z,3.50
2022-09-07T13:16:10.582Z,3.72
2022-09-07T13:18:43.725Z,3.30
2022-09-07T13:21:12.147Z,3.53
2022-09-07T13:23:45.767Z,3.38
2022-09-07T13:26:51.785Z,3.22
2022-09-07T13:29:24.402Z,3.40
2022-09-07T13:32:03.808Z,3.83
2022-09-07T13:34:33.896Z,3.70
2022-09-07T13:37:03.426Z,3.50
2022-09-07T13:39:40.706Z,3.80
2022-09-07T13:42:17.253Z,4.00
2022-09-07T13:44:53.552Z,3.20
2022-09-07T13:47:55.914Z,3.05
2022-09-07T13:50:38.455Z,3.42
2022-09-07T13:53:21.144Z,3.15
2022-09-07T13:56:05.698Z,3.58
2022-09-07T13:58:34.503Z,3.58
2022-09-07T14:01:13.489Z,3.60
2022-09-07T14:03:59.715Z,3.38
2022-09-07T14:06:30.285Z,3.78
2022-09-07T14:09:02.529Z,3.42
2022-09-07T14:11:45.806Z,3.67
2022-09-07T14:14:17.272Z,4.20
2022-09-07T14:17:05.476Z,3.72
2022-09-07T14:19:45.043Z,3.53
2022-09-07T14:22:16.835Z,4.60
2022-09-07T14:24:56.105Z,4.25
2022-09-07T14:27:26.245Z,4.22
2022-09-07T14:29:53.700Z,4.10
2022-09-07T14:32:24.703Z,4.00
2022-09-07T14:34:52.509Z,4.55
2022-09-07T14:37:22.025Z,4.50
2022-09-07T14:39:51.173Z,4.95
2022-09-07T14:42:23.644Z,4.85
2022-09-07T14:45:20.600Z,4.47
2022-09-07T14:47:52.164Z,4.57
2022-09-07T14:50:41.227Z,4.15
2022-09-07T14:53:36.297Z,4.70
2022-09-07T14:56:20.992Z,4.90
2022-09-07T14:58:53.347Z,4.50
2022-09-07T15:01:39.736Z,5.22
2022-09-07T15:04:21.202Z,4.90
2022-09-07T15:07:04.296Z,4.50
2022-09-07T15:09:37.191Z,4.13
2022-09-07T15:12:18.988Z,4.88
2022-09-07T15:14:47.887Z,4.80
2022-09-07T15:17:46.894Z,5.00
2022-09-07T15:20:45.232Z,4.95
2022-09-07T15:23:19.318Z,4.43
2022-09-07T15:25:53.596Z,4.38
2022-09-07T15:34:13.186Z,3.78
2022-09-07T15:36:44.370Z,3.80
2022-09-07T15:39:28.077Z,4.30
2022-09-07T15:41:56.749Z,4.10
2022-09-07T15:44:26.315Z,4.00
2022-09-07T15:49:49.497Z,4.70
2022-09-07T15:52:17.758Z,4.30
2022-09-07T15:54:46.597Z,4.38
2022-09-07T16:00:06.054Z,4.63
2022-09-07T16:05:30.993Z,4.43
2022-09-07T16:10:54.302Z,4.30
2022-09-07T16:13:24.119Z,4.70
2022-09-07T16:15:52.913Z,4.63
2022-09-07T16:18:21.235Z,4.40
2022-09-07T16:20:52.677Z,4.95
2022-09-07T16:23:20.727Z,4.25
2022-09-07T16:26:00.726Z,4.65
2022-09-07T16:28:29.237Z,3.83
2022-09-07T16:30:57.603Z,4.78
2022-09-07T16:33:33.106Z,4.22
2022-09-07T16:36:07.666Z,4.32
2022-09-07T16:38:50.641Z,4.25
2022-09-07T16:41:22.696Z,4.10
2022-09-07T16:43:50.704Z,4.60
2022-09-07T16:46:21.091Z,4.72
2022-09-07T16:48:50.638Z,4.72
2022-09-07T16:51:21.412Z,4.60
2022-09-07T16:53:51.179Z,4.47
2022-09-07T16:56:20.910Z,4.75
2022-09-07T16:58:52.336Z,4.40
2022-09-07T17:01:23.476Z,4.55
2022-09-07T17:03:52.425Z,4.63
2022-09-07T17:06:23.658Z,5.10
2022-09-07T17:08:53.184Z,4.60
2022-09-07T17:11:32.280Z,4.70
2022-09-07T17:14:00.387Z,4.95
2022-09-07T17:17:06.893Z,5.00
2022-09-07T17:19:34.904Z,5.03
2022-09-07T17:22:03.533Z,5.15
2022-09-07T17:24:32.823Z,4.88
2022-09-07T17:27:01.120Z,4.93
2022-09-07T17:29:32.991Z,5.10
2022-09-07T17:32:29.265Z,5.50
2022-09-07T17:34:58.078Z,5.20
2022-09-07T17:37:25.811Z,4.88
2022-09-07T17:39:53.557Z,5.45
2022-09-07T17:42:21.300Z,5.40
2022-09-07T17:44:52.789Z,5.35
2022-09-07T17:47:20.701Z,4.90
2022-09-07T17:49:48.035Z,5.05
2022-09-07T17:52:15.767Z,5.28
2022-09-07T17:54:43.159Z,5.32
2022-09-07T17:57:10.679Z,5.28
2022-09-07T18:02:25.486Z,5.65
2022-09-07T18:04:52.813Z,5.20
2022-09-07T18:07:20.224Z,5.13
2022-09-07T18:09:47.550Z,5.25
2022-09-07T18:12:14.957Z,5.43
2022-09-07T18:14:43.619Z,5.68
2022-09-07T18:17:11.216Z,5.38
2022-09-07T18:19:38.773Z,5.47
2022-09-07T18:22:06.277Z,5.40
2022-09-07T18:24:36.996Z,5.38
2022-09-07T18:27:07.717Z,5.35
2022-09-07T18:29:35.254Z,5.82
2022-09-07T18:32:08.763Z,5.65
2022-09-07T18:34:38.599Z,6.05
2022-09-07T18:37:06.817Z,5.30
2022-09-07T18:39:35.570Z,5.70
2022-09-07T18:42:04.191Z,5.78
2022-09-07T18:47:31.713Z,5.32
2022-09-07T18:49:59.319Z,5.25
2022-09-07T18:55:16.337Z,5.70
2022-09-07T18:57:44.863Z,5.05
2022-09-07T19:00:13.833Z,5.35
2022-09-07T19:02:42.534Z,5.07
2022-09-07T19:08:02.983Z,5.15
2022-09-07T19:10:36.494Z,4.97
2022-09-07T19:13:05.678Z,4.78
2022-09-07T19:15:37.513Z,5.07
2022-09-07T19:18:08.339Z,5.50
2022-09-07T19:20:38.983Z,5.03
2022-09-07T19:23:08.642Z,4.85
2022-09-07T19:25:41.616Z,5.30
2022-09-07T19:28:11.862Z,5.10
2022-09-07T19:30:41.530Z,4.90
2022-09-07T19:33:12.611Z,5.60
2022-09-07T19:35:41.683Z,5.47
2022-09-07T19:38:13.528Z,4.78
2022-09-07T19:40:42.516Z,4.78
2022-09-07T19:43:11.434Z,5.43
2022-09-07T19:45:44.202Z,5.35
2022-09-07T19:48:13.027Z,5.30
2022-09-07T19:50:43.890Z,5.00
2022-09-07T19:53:15.371Z,5.20
2022-09-07T19:55:45.349Z,5.13
2022-09-07T19:58:15.340Z,5.15
2022-09-07T20:00:45.466Z,5.53
2022-09-07T20:03:16.626Z,6.10
2022-09-07T20:05:47.000Z,5.25
2022-09-07T20:08:15.669Z,5.97
2022-09-07T20:10:44.961Z,5.20
2022-09-07T20:13:13.947Z,5.25
2022-09-07T20:15:45.596Z,5.90
2022-09-07T20:18:15.571Z,5.43
2022-09-07T20:20:45.655Z,5.30
2022-09-07T20:23:16.572Z,6.00
2022-09-07T20:25:45.487Z,5.75
2022-09-07T20:28:14.614Z,6.20
2022-09-07T20:30:44.955Z,5.95
2022-09-07T20:33:13.537Z,6.00
2022-09-07T20:35:44.773Z,5.93
2022-09-07T20:38:14.266Z,7.20
2022-09-07T20:40:59.332Z,5.13
2022-09-07T20:43:27.905Z,5.80
2022-09-07T20:45:59.309Z,5.90
2022-09-07T20:51:04.322Z,5.50
2022-09-07T20:53:33.800Z,5.22
2022-09-07T20:56:15.458Z,5.05
2022-09-07T20:58:45.870Z,5.15
2022-09-07T21:01:19.207Z,5.03
2022-09-07T21:03:49.663Z,5.13
2022-09-07T21:06:18.075Z,4.90
2022-09-07T21:08:47.168Z,4.75
2022-09-07T21:11:20.363Z,4.78
2022-09-07T21:13:50.588Z,5.10
2022-09-07T21:16:18.557Z,4.75
2022-09-07T21:18:46.003Z,4.60
2022-09-07T21:21:20.975Z,4.50
2022-09-07T21:23:49.560Z,4.32
2022-09-07T21:26:21.010Z,5.20
2022-09-07T21:28:48.634Z,4.70
2022-09-07T21:31:16.073Z,5.03
2022-09-07T21:33:43.435Z,4.68
2022-09-07T21:36:13.139Z,4.70
2022-09-07T21:38:41.337Z,4.30
2022-09-07T21:41:14.093Z,4.13
2022-09-07T21:43:42.351Z,4.90
2022-09-07T21:46:12.864Z,4.45
2022-09-07T21:48:40.305Z,4.30
2022-09-07T21:51:07.999Z,4.65
2022-09-07T21:53:35.598Z,4.10
2022-09-07T21:56:05.694Z,4.20
2022-09-07T21:58:33.707Z,4.30
2022-09-07T22:01:12.342Z,3.80
2022-09-07T22:03:40.609Z,4.00
2022-09-07T22:06:08.535Z,4.00
2022-09-07T22:08:37.326Z,3.90
2022-09-07T22:11:07.049Z,3.70
2022-09-07T22:13:35.096Z,3.60
2022-09-07T22:16:03.958Z,3.97
2022-09-07T22:18:31.945Z,4.03
2022-09-07T22:21:11.161Z,3.90
2022-09-07T22:23:42.817Z,3.67
2022-09-07T22:26:10.292Z,3.90
2022-09-07T22:28:38.531Z,4.45
2022-09-07T22:31:26.707Z,3.88
2022-09-07T22:33:55.120Z,3.80
2022-09-07T22:36:26.138Z,3.40
2022-09-07T22:38:56.288Z,4.05
2022-09-07T22:41:29.662Z,3.95
2022-09-07T22:43:57.461Z,4.25
2022-09-07T22:46:27.572Z,3.80
2022-09-07T22:48:56.068Z,3.95
2022-09-07T22:51:26.237Z,3.50
2022-09-07T22:53:54.636Z,3.40
2022-09-07T22:56:26.298Z,3.92
2022-09-07T22:58:59.303Z,3.70
2022-09-07T23:01:29.413Z,3.58
2022-09-07T23:03:57.856Z,4.00
2022-09-07T23:06:27.850Z,3.75
2022-09-07T23:08:58.140Z,3.80
2022-09-07T23:13:57.690Z,3.55
2022-09-07T23:16:27.187Z,4.28
2022-09-07T23:18:59.249Z,3.88
2022-09-07T23:21:27.873Z,3.47
2022-09-07T23:23:57.995Z,4.07
2022-09-07T23:26:28.802Z,4.05
2022-09-07T23:28:58.565Z,4.00
2022-09-07T23:31:27.329Z,4.63
2022-09-07T23:33:56.370Z,3.95
2022-09-07T23:36:24.685Z,3.78
2022-09-07T23:38:55.421Z,3.65
2022-09-07T23:41:24.590Z,4.68
2022-09-07T23:43:52.783Z,3.50
2022-09-07T23:46:20.900Z,3.90
2022-09-07T23:48:48.999Z,3.25
2022-09-07T23:51:21.236Z,3.53
2022-09-07T23:53:49.126Z,3.83
2022-09-07T23:56:16.707Z,4.03
2022-09-07T23:58:44.086Z,3.70
